sensor_id;sensor_type;location;lat;lon;timestamp;temperature;humidity
5779;DHT22;2916;49.798;10.022;2022-08-25T00:11:19;20.40;8.80
5779;DHT22;2916;49.798;10.022;2022-08-25T00:14:06;20.30;10.30
5779;DHT22;2916;49.798;10.022;2022-08-25T00:16:35;20.30;10.50
5779;DHT22;2916;49.798;10.022;2022-08-25T00:19:06;20.30;11.60
5779;DHT22;2916;49.798;10.022;2022-08-25T00:21:36;20.40;11.70
5779;DHT22;2916;49.798;10.022;2022-08-25T00:24:04;20.30;4.70
5779;DHT22;2916;49.798;10.022;2022-08-25T00:26:37;20.30;13.00
5779;DHT22;2916;49.798;10.022;2022-08-25T00:29:07;20.30;15.50
5779;DHT22;2916;49.798;10.022;2022-08-25T00:35:37;20.30;11.90
5779;DHT22;2916;49.798;10.022;2022-08-25T00:38:06;20.30;14.10
5779;DHT22;2916;49.798;10.022;2022-08-25T00:40:34;20.30;17.40
5779;DHT22;2916;49.798;10.022;2022-08-25T00:43:05;20.20;18.40
5779;DHT22;2916;49.798;10.022;2022-08-25T00:45:34;20.30;17.50
5779;DHT22;2916;49.798;10.022;2022-08-25T00:48:02;20.20;15.40
5779;DHT22;2916;49.798;10.022;2022-08-25T00:50:32;20.20;20.00
5779;DHT22;2916;49.798;10.022;2022-08-25T00:53:02;20.10;15.30
5779;DHT22;2916;49.798;10.022;2022-08-25T00:55:33;20.10;13.00
5779;DHT22;2916;49.798;10.022;2022-08-25T00:58:08;20.10;14.70
5779;DHT22;2916;49.798;10.022;2022-08-25T01:00:44;20.00;12.00
5779;DHT22;2916;49.798;10.022;2022-08-25T01:03:15;20.00;11.90
5779;DHT22;2916;49.798;10.022;2022-08-25T01:05:44;20.00;14.80
5779;DHT22;2916;49.798;10.022;2022-08-25T01:08:13;19.90;13.40
5779;DHT22;2916;49.798;10.022;2022-08-25T01:10:43;19.90;12.00
5779;DHT22;2916;49.798;10.022;2022-08-25T01:13:14;19.90;19.60
5779;DHT22;2916;49.798;10.022;2022-08-25T01:15:45;19.90;18.10
5779;DHT22;2916;49.798;10.022;2022-08-25T01:18:14;19.80;28.90
5779;DHT22;2916;49.798;10.022;2022-08-25T01:20:42;19.80;33.90
5779;DHT22;2916;49.798;10.022;2022-08-25T01:23:12;19.70;38.00
5779;DHT22;2916;49.798;10.022;2022-08-25T01:25:47;19.70;36.50
5779;DHT22;2916;49.798;10.022;2022-08-25T01:28:21;19.70;41.00
5779;DHT22;2916;49.798;10.022;2022-08-25T01:30:48;19.70;39.00
5779;DHT22;2916;49.798;10.022;2022-08-25T01:33:17;19.70;31.30
5779;DHT22;2916;49.798;10.022;2022-08-25T01:35:44;19.60;34.40
5779;DHT22;2916;49.798;10.022;2022-08-25T01:38:14;19.50;23.40
5779;DHT22;2916;49.798;10.022;2022-08-25T01:40:42;19.50;27.70
5779;DHT22;2916;49.798;10.022;2022-08-25T01:43:16;19.50;30.10
5779;DHT22;2916;49.798;10.022;2022-08-25T01:45:51;19.50;32.80
5779;DHT22;2916;49.798;10.022;2022-08-25T01:48:18;19.50;45.00
5779;DHT22;2916;49.798;10.022;2022-08-25T01:50:45;19.40;62.70
5779;DHT22;2916;49.798;10.022;2022-08-25T01:53:21;19.40;69.40
5779;DHT22;2916;49.798;10.022;2022-08-25T01:55:52;19.30;65.10
5779;DHT22;2916;49.798;10.022;2022-08-25T01:58:28;19.30;74.00
5779;DHT22;2916;49.798;10.022;2022-08-25T02:00:59;19.30;79.40
5779;DHT22;2916;49.798;10.022;2022-08-25T02:03:28;19.30;76.50
5779;DHT22;2916;49.798;10.022;2022-08-25T02:05:56;19.30;79.40
5779;DHT22;2916;49.798;10.022;2022-08-25T02:08:27;19.10;90.70
5779;DHT22;2916;49.798;10.022;2022-08-25T02:10:54;19.10;92.90
5779;DHT22;2916;49.798;10.022;2022-08-25T02:13:22;19.10;99.90
5779;DHT22;2916;49.798;10.022;2022-08-25T02:15:52;19.00;99.90
5779;DHT22;2916;49.798;10.022;2022-08-25T02:18:21;19.00;99.90
5779;DHT22;2916;49.798;10.022;2022-08-25T02:20:49;19.00;92.70
5779;DHT22;2916;49.798;10.022;2022-08-25T02:23:16;19.00;91.40
5779;DHT22;2916;49.798;10.022;2022-08-25T02:25:45;19.00;86.80
5779;DHT22;2916;49.798;10.022;2022-08-25T02:28:13;19.00;87.10
5779;DHT22;2916;49.798;10.022;2022-08-25T02:30:41;18.90;82.00
5779;DHT22;2916;49.798;10.022;2022-08-25T02:33:10;18.90;83.30
5779;DHT22;2916;49.798;10.022;2022-08-25T02:35:37;18.80;85.70
5779;DHT22;2916;49.798;10.022;2022-08-25T02:38:05;18.80;84.90
5779;DHT22;2916;49.798;10.022;2022-08-25T02:40:32;18.80;94.90
5779;DHT22;2916;49.798;10.022;2022-08-25T02:43:01;18.80;98.50
5779;DHT22;2916;49.798;10.022;2022-08-25T02:45:28;18.80;98.50
5779;DHT22;2916;49.798;10.022;2022-08-25T02:47:56;18.80;99.90
5779;DHT22;2916;49.798;10.022;2022-08-25T02:50:23;18.80;99.90
5779;DHT22;2916;49.798;10.022;2022-08-25T02:52:50;18.80;99.90
5779;DHT22;2916;49.798;10.022;2022-08-25T02:55:18;18.80;99.90
5779;DHT22;2916;49.798;10.022;2022-08-25T02:57:46;18.80;99.90
5779;DHT22;2916;49.798;10.022;2022-08-25T03:00:16;18.80;99.90
5779;DHT22;2916;49.798;10.022;2022-08-25T03:02:44;18.70;99.90
5779;DHT22;2916;49.798;10.022;2022-08-25T03:05:13;18.70;99.90
5779;DHT22;2916;49.798;10.022;2022-08-25T03:07:40;18.70;99.90
5779;DHT22;2916;49.798;10.022;2022-08-25T03:10:10;18.70;99.90
5779;DHT22;2916;49.798;10.022;2022-08-25T03:12:39;18.60;99.90
5779;DHT22;2916;49.798;10.022;2022-08-25T03:15:09;18.60;99.90
5779;DHT22;2916;49.798;10.022;2022-08-25T03:17:39;18.60;99.90
5779;DHT22;2916;49.798;10.022;2022-08-25T03:20:06;18.60;99.90
5779;DHT22;2916;49.798;10.022;2022-08-25T03:22:34;18.60;99.90
5779;DHT22;2916;49.798;10.022;2022-08-25T03:25:02;18.60;99.90
5779;DHT22;2916;49.798;10.022;2022-08-25T03:27:43;18.60;99.90
5779;DHT22;2916;49.798;10.022;2022-08-25T03:30:11;18.50;99.90
5779;DHT22;2916;49.798;10.022;2022-08-25T03:32:40;18.50;99.90
5779;DHT22;2916;49.798;10.022;2022-08-25T03:35:08;18.50;99.90
5779;DHT22;2916;49.798;10.022;2022-08-25T03:37:37;18.50;99.90
5779;DHT22;2916;49.798;10.022;2022-08-25T03:40:06;18.50;99.90
5779;DHT22;2916;49.798;10.022;2022-08-25T03:42:39;18.40;99.90
5779;DHT22;2916;49.798;10.022;2022-08-25T03:45:08;18.40;99.90
5779;DHT22;2916;49.798;10.022;2022-08-25T03:47:37;18.40;99.90
5779;DHT22;2916;49.798;10.022;2022-08-25T03:50:08;18.30;99.90
5779;DHT22;2916;49.798;10.022;2022-08-25T03:52:37;18.40;99.90
5779;DHT22;2916;49.798;10.022;2022-08-25T03:55:08;18.30;99.90
5779;DHT22;2916;49.798;10.022;2022-08-25T03:57:37;18.30;99.90
5779;DHT22;2916;49.798;10.022;2022-08-25T04:00:06;18.30;99.90
5779;DHT22;2916;49.798;10.022;2022-08-25T04:02:36;18.30;99.90
5779;DHT22;2916;49.798;10.022;2022-08-25T04:05:06;18.30;99.90
5779;DHT22;2916;49.798;10.022;2022-08-25T04:07:34;18.30;99.90
5779;DHT22;2916;49.798;10.022;2022-08-25T04:10:02;18.20;99.90
5779;DHT22;2916;49.798;10.022;2022-08-25T04:12:30;18.20;99.90
5779;DHT22;2916;49.798;10.022;2022-08-25T04:14:57;18.20;99.90
5779;DHT22;2916;49.798;10.022;2022-08-25T04:17:25;18.20;99.90
5779;DHT22;2916;49.798;10.022;2022-08-25T04:19:53;18.10;99.90
5779;DHT22;2916;49.798;10.022;2022-08-25T04:22:22;18.10;99.90
5779;DHT22;2916;49.798;10.022;2022-08-25T04:24:49;18.00;99.90
5779;DHT22;2916;49.798;10.022;2022-08-25T04:27:16;18.00;99.90
5779;DHT22;2916;49.798;10.022;2022-08-25T04:29:43;18.10;99.90
5779;DHT22;2916;49.798;10.022;2022-08-25T04:32:10;18.00;99.90
5779;DHT22;2916;49.798;10.022;2022-08-25T04:34:38;17.90;99.90
5779;DHT22;2916;49.798;10.022;2022-08-25T04:37:05;18.00;99.90
5779;DHT22;2916;49.798;10.022;2022-08-25T04:39:34;17.90;99.90
5779;DHT22;2916;49.798;10.022;2022-08-25T04:42:02;17.90;99.90
5779;DHT22;2916;49.798;10.022;2022-08-25T04:44:30;17.80;99.90
5779;DHT22;2916;49.798;10.022;2022-08-25T04:46:57;17.80;99.90
5779;DHT22;2916;49.798;10.022;2022-08-25T04:49:26;17.70;99.90
5779;DHT22;2916;49.798;10.022;2022-08-25T04:51:53;17.70;99.90
5779;DHT22;2916;49.798;10.022;2022-08-25T04:54:22;17.70;99.90
5779;DHT22;2916;49.798;10.022;2022-08-25T04:56:51;17.70;99.90
5779;DHT22;2916;49.798;10.022;2022-08-25T04:59:19;17.70;99.90
5779;DHT22;2916;49.798;10.022;2022-08-25T05:01:46;17.70;99.90
5779;DHT22;2916;49.798;10.022;2022-08-25T05:04:15;17.70;99.90
5779;DHT22;2916;49.798;10.022;2022-08-25T05:06:43;17.80;99.90
5779;DHT22;2916;49.798;10.022;2022-08-25T05:09:11;17.70;99.90
5779;DHT22;2916;49.798;10.022;2022-08-25T05:11:38;17.70;99.90
5779;DHT22;2916;49.798;10.022;2022-08-25T05:14:07;17.70;99.90
5779;DHT22;2916;49.798;10.022;2022-08-25T05:16:37;17.70;99.90
5779;DHT22;2916;49.798;10.022;2022-08-25T05:19:05;17.80;99.90
5779;DHT22;2916;49.798;10.022;2022-08-25T05:21:33;18.10;99.90
5779;DHT22;2916;49.798;10.022;2022-08-25T05:24:00;18.40;99.90
5779;DHT22;2916;49.798;10.022;2022-08-25T05:26:29;18.90;99.90
5779;DHT22;2916;49.798;10.022;2022-08-25T05:28:59;19.40;99.90
5779;DHT22;2916;49.798;10.022;2022-08-25T05:31:31;19.80;99.90
5779;DHT22;2916;49.798;10.022;2022-08-25T05:34:04;20.10;99.90
5779;DHT22;2916;49.798;10.022;2022-08-25T05:36:32;20.50;99.90
5779;DHT22;2916;49.798;10.022;2022-08-25T05:39:00;21.10;99.90
5779;DHT22;2916;49.798;10.022;2022-08-25T05:41:28;21.70;99.90
5779;DHT22;2916;49.798;10.022;2022-08-25T05:43:56;22.20;99.90
5779;DHT22;2916;49.798;10.022;2022-08-25T05:46:24;22.50;99.90
5779;DHT22;2916;49.798;10.022;2022-08-25T05:48:53;22.50;97.50
5779;DHT22;2916;49.798;10.022;2022-08-25T05:51:20;22.80;93.70
5779;DHT22;2916;49.798;10.022;2022-08-25T05:53:49;23.30;78.10
5779;DHT22;2916;49.798;10.022;2022-08-25T05:56:17;23.00;67.10
5779;DHT22;2916;49.798;10.022;2022-08-25T05:58:45;23.10;70.70
5779;DHT22;2916;49.798;10.022;2022-08-25T06:01:24;23.50;64.40
5779;DHT22;2916;49.798;10.022;2022-08-25T06:04:12;23.30;55.50
5779;DHT22;2916;49.798;10.022;2022-08-25T06:06:40;23.70;43.60
5779;DHT22;2916;49.798;10.022;2022-08-25T06:09:08;23.60;35.60
5779;DHT22;2916;49.798;10.022;2022-08-25T06:11:37;24.00;29.20
5779;DHT22;2916;49.798;10.022;2022-08-25T06:14:05;24.10;28.30
5779;DHT22;2916;49.798;10.022;2022-08-25T06:16:33;24.70;15.60
5779;DHT22;2916;49.798;10.022;2022-08-25T06:19:00;24.50;10.60
5779;DHT22;2916;49.798;10.022;2022-08-25T06:21:28;25.00;8.00
5779;DHT22;2916;49.798;10.022;2022-08-25T06:23:55;25.60;1.00
5779;DHT22;2916;49.798;10.022;2022-08-25T06:26:23;25.40;1.00
5779;DHT22;2916;49.798;10.022;2022-08-25T06:28:51;25.30;1.00
5779;DHT22;2916;49.798;10.022;2022-08-25T06:31:19;24.70;3.30
5779;DHT22;2916;49.798;10.022;2022-08-25T06:33:48;24.10;11.80
5779;DHT22;2916;49.798;10.022;2022-08-25T06:36:16;23.80;24.40
5779;DHT22;2916;49.798;10.022;2022-08-25T06:38:45;23.80;21.80
5779;DHT22;2916;49.798;10.022;2022-08-25T06:41:12;23.80;25.20
5779;DHT22;2916;49.798;10.022;2022-08-25T06:43:41;23.80;20.90
5779;DHT22;2916;49.798;10.022;2022-08-25T06:46:09;24.60;12.60
5779;DHT22;2916;49.798;10.022;2022-08-25T06:48:38;26.10;1.00
5779;DHT22;2916;49.798;10.022;2022-08-25T06:51:08;26.00;1.00
5779;DHT22;2916;49.798;10.022;2022-08-25T06:53:37;25.50;1.00
5779;DHT22;2916;49.798;10.022;2022-08-25T06:56:06;25.50;1.00
5779;DHT22;2916;49.798;10.022;2022-08-25T06:58:33;24.30;11.90
5779;DHT22;2916;49.798;10.022;2022-08-25T07:01:08;25.00;2.60
5779;DHT22;2916;49.798;10.022;2022-08-25T07:03:37;26.10;1.00
5779;DHT22;2916;49.798;10.022;2022-08-25T07:06:05;26.30;1.00
5779;DHT22;2916;49.798;10.022;2022-08-25T07:08:33;25.50;1.00
5779;DHT22;2916;49.798;10.022;2022-08-25T07:11:06;26.30;1.00
5779;DHT22;2916;49.798;10.022;2022-08-25T07:13:34;25.80;1.00
5779;DHT22;2916;49.798;10.022;2022-08-25T07:16:04;26.30;1.00
5779;DHT22;2916;49.798;10.022;2022-08-25T07:18:32;26.00;1.00
5779;DHT22;2916;49.798;10.022;2022-08-25T07:21:00;24.90;1.00
5779;DHT22;2916;49.798;10.022;2022-08-25T07:23:28;25.00;1.00
5779;DHT22;2916;49.798;10.022;2022-08-25T07:25:55;24.90;1.00
5779;DHT22;2916;49.798;10.022;2022-08-25T07:28:23;25.70;1.00
5779;DHT22;2916;49.798;10.022;2022-08-25T07:30:51;25.40;1.00
5779;DHT22;2916;49.798;10.022;2022-08-25T07:33:18;25.80;1.00
5779;DHT22;2916;49.798;10.022;2022-08-25T07:35:45;26.90;1.00
5779;DHT22;2916;49.798;10.022;2022-08-25T07:38:11;26.90;1.00
5779;DHT22;2916;49.798;10.022;2022-08-25T07:40:38;26.40;1.00
5779;DHT22;2916;49.798;10.022;2022-08-25T07:43:06;25.40;1.00
5779;DHT22;2916;49.798;10.022;2022-08-25T07:45:37;25.30;1.00
5779;DHT22;2916;49.798;10.022;2022-08-25T07:48:07;26.20;1.00
5779;DHT22;2916;49.798;10.022;2022-08-25T07:50:37;27.60;1.00
5779;DHT22;2916;49.798;10.022;2022-08-25T07:53:07;26.10;1.00
5779;DHT22;2916;49.798;10.022;2022-08-25T07:55:35;26.60;1.00
5779;DHT22;2916;49.798;10.022;2022-08-25T07:58:05;25.50;1.00
5779;DHT22;2916;49.798;10.022;2022-08-25T08:00:36;25.90;1.00
5779;DHT22;2916;49.798;10.022;2022-08-25T08:03:06;26.60;1.00
5779;DHT22;2916;49.798;10.022;2022-08-25T08:05:35;26.30;1.00
5779;DHT22;2916;49.798;10.022;2022-08-25T08:08:08;26.40;1.00
5779;DHT22;2916;49.798;10.022;2022-08-25T08:10:38;27.10;1.00
5779;DHT22;2916;49.798;10.022;2022-08-25T08:13:05;26.40;1.00
5779;DHT22;2916;49.798;10.022;2022-08-25T08:15:34;27.20;1.00
5779;DHT22;2916;49.798;10.022;2022-08-25T08:18:03;27.30;1.00
5779;DHT22;2916;49.798;10.022;2022-08-25T08:20:30;27.10;1.00
5779;DHT22;2916;49.798;10.022;2022-08-25T08:22:59;27.60;1.00
5779;DHT22;2916;49.798;10.022;2022-08-25T08:25:26;26.60;1.00
5779;DHT22;2916;49.798;10.022;2022-08-25T08:27:54;26.80;1.00
5779;DHT22;2916;49.798;10.022;2022-08-25T08:30:22;27.10;1.00
5779;DHT22;2916;49.798;10.022;2022-08-25T08:32:51;27.30;1.00
5779;DHT22;2916;49.798;10.022;2022-08-25T08:35:18;27.40;1.00
5779;DHT22;2916;49.798;10.022;2022-08-25T08:37:45;27.70;1.00
5779;DHT22;2916;49.798;10.022;2022-08-25T08:40:14;27.80;1.00
5779;DHT22;2916;49.798;10.022;2022-08-25T08:42:53;28.50;1.00
5779;DHT22;2916;49.798;10.022;2022-08-25T08:45:33;28.60;1.00
5779;DHT22;2916;49.798;10.022;2022-08-25T08:48:27;28.50;1.00
5779;DHT22;2916;49.798;10.022;2022-08-25T08:51:14;28.30;1.00
5779;DHT22;2916;49.798;10.022;2022-08-25T08:53:51;28.60;1.00
5779;DHT22;2916;49.798;10.022;2022-08-25T08:56:24;28.20;1.00
5779;DHT22;2916;49.798;10.022;2022-08-25T08:58:59;27.90;1.00
5779;DHT22;2916;49.798;10.022;2022-08-25T09:01:32;27.80;1.00
5779;DHT22;2916;49.798;10.022;2022-08-25T09:04:12;28.00;1.00
5779;DHT22;2916;49.798;10.022;2022-08-25T09:06:45;27.90;1.00
5779;DHT22;2916;49.798;10.022;2022-08-25T09:09:16;28.20;1.00
5779;DHT22;2916;49.798;10.022;2022-08-25T09:11:56;28.40;1.00
5779;DHT22;2916;49.798;10.022;2022-08-25T09:14:41;29.00;1.00
5779;DHT22;2916;49.798;10.022;2022-08-25T09:17:23;28.30;1.00
5779;DHT22;2916;49.798;10.022;2022-08-25T09:20:28;28.70;1.00
5779;DHT22;2916;49.798;10.022;2022-08-25T09:23:12;28.50;1.00
5779;DHT22;2916;49.798;10.022;2022-08-25T09:25:58;28.70;1.00
5779;DHT22;2916;49.798;10.022;2022-08-25T09:28:42;28.60;1.00
5779;DHT22;2916;49.798;10.022;2022-08-25T09:31:18;29.30;1.00
5779;DHT22;2916;49.798;10.022;2022-08-25T09:33:53;30.10;1.00
5779;DHT22;2916;49.798;10.022;2022-08-25T09:36:24;28.90;1.00
5779;DHT22;2916;49.798;10.022;2022-08-25T09:38:51;29.00;1.00
5779;DHT22;2916;49.798;10.022;2022-08-25T09:41:39;29.40;1.00
5779;DHT22;2916;49.798;10.022;2022-08-25T09:44:17;29.30;1.00
5779;DHT22;2916;49.798;10.022;2022-08-25T09:47:00;29.10;1.00
5779;DHT22;2916;49.798;10.022;2022-08-25T09:49:33;29.40;1.00
5779;DHT22;2916;49.798;10.022;2022-08-25T09:52:24;29.50;1.00
5779;DHT22;2916;49.798;10.022;2022-08-25T09:55:35;29.50;1.00
5779;DHT22;2916;49.798;10.022;2022-08-25T09:58:16;29.30;1.00
5779;DHT22;2916;49.798;10.022;2022-08-25T10:01:03;29.40;1.00
5779;DHT22;2916;49.798;10.022;2022-08-25T10:03:32;29.00;1.00
5779;DHT22;2916;49.798;10.022;2022-08-25T10:06:05;28.90;1.00
5779;DHT22;2916;49.798;10.022;2022-08-25T10:08:39;28.40;1.00
5779;DHT22;2916;49.798;10.022;2022-08-25T10:11:36;29.10;1.00
5779;DHT22;2916;49.798;10.022;2022-08-25T10:14:18;29.00;1.00
5779;DHT22;2916;49.798;10.022;2022-08-25T10:16:51;28.50;1.00
5779;DHT22;2916;49.798;10.022;2022-08-25T10:19:36;28.30;1.00
5779;DHT22;2916;49.798;10.022;2022-08-25T10:22:07;28.20;1.00
5779;DHT22;2916;49.798;10.022;2022-08-25T10:24:38;28.20;1.00
5779;DHT22;2916;49.798;10.022;2022-08-25T10:27:14;28.40;1.00
5779;DHT22;2916;49.798;10.022;2022-08-25T10:30:06;28.10;1.00
5779;DHT22;2916;49.798;10.022;2022-08-25T10:32:57;27.60;1.00
5779;DHT22;2916;49.798;10.022;2022-08-25T10:35:46;27.50;1.00
5779;DHT22;2916;49.798;10.022;2022-08-25T10:38:41;27.90;1.00
5779;DHT22;2916;49.798;10.022;2022-08-25T10:41:35;28.00;1.00
5779;DHT22;2916;49.798;10.022;2022-08-25T10:44:18;28.00;1.00
5779;DHT22;2916;49.798;10.022;2022-08-25T10:47:24;27.90;1.00
5779;DHT22;2916;49.798;10.022;2022-08-25T10:50:13;27.70;1.00
5779;DHT22;2916;49.798;10.022;2022-08-25T10:53:02;27.90;1.00
5779;DHT22;2916;49.798;10.022;2022-08-25T10:55:45;28.20;1.00
5779;DHT22;2916;49.798;10.022;2022-08-25T10:58:27;28.30;1.00
5779;DHT22;2916;49.798;10.022;2022-08-25T11:01:13;27.90;1.00
5779;DHT22;2916;49.798;10.022;2022-08-25T11:03:49;28.30;1.00
5779;DHT22;2916;49.798;10.022;2022-08-25T11:06:24;28.70;1.00
5779;DHT22;2916;49.798;10.022;2022-08-25T11:09:01;28.90;1.00
5779;DHT22;2916;49.798;10.022;2022-08-25T11:11:36;29.80;1.00
5779;DHT22;2916;49.798;10.022;2022-08-25T11:14:13;30.20;1.00
5779;DHT22;2916;49.798;10.022;2022-08-25T11:16:51;30.20;1.00
5779;DHT22;2916;49.798;10.022;2022-08-25T11:19:29;30.60;1.00
5779;DHT22;2916;49.798;10.022;2022-08-25T11:22:03;31.00;1.00
5779;DHT22;2916;49.798;10.022;2022-08-25T11:24:45;30.90;1.00
5779;DHT22;2916;49.798;10.022;2022-08-25T11:27:23;31.40;1.00
5779;DHT22;2916;49.798;10.022;2022-08-25T11:30:04;30.90;1.00
5779;DHT22;2916;49.798;10.022;2022-08-25T11:32:36;30.80;1.00
5779;DHT22;2916;49.798;10.022;2022-08-25T11:35:07;31.20;1.00
5779;DHT22;2916;49.798;10.022;2022-08-25T11:37:44;31.50;1.00
5779;DHT22;2916;49.798;10.022;2022-08-25T11:40:35;31.70;1.00
5779;DHT22;2916;49.798;10.022;2022-08-25T11:43:23;30.80;1.00
5779;DHT22;2916;49.798;10.022;2022-08-25T11:46:14;31.20;1.00
5779;DHT22;2916;49.798;10.022;2022-08-25T11:48:59;31.80;1.00
5779;DHT22;2916;49.798;10.022;2022-08-25T11:51:42;31.40;1.00
5779;DHT22;2916;49.798;10.022;2022-08-25T11:54:17;31.30;1.00
5779;DHT22;2916;49.798;10.022;2022-08-25T11:56:55;30.80;1.00
5779;DHT22;2916;49.798;10.022;2022-08-25T12:02:39;30.70;1.00
5779;DHT22;2916;49.798;10.022;2022-08-25T12:05:11;30.60;1.00
5779;DHT22;2916;49.798;10.022;2022-08-25T12:08:50;30.60;1.00
5779;DHT22;2916;49.798;10.022;2022-08-25T12:11:42;30.30;1.00
5779;DHT22;2916;49.798;10.022;2022-08-25T12:14:41;30.90;1.00
5779;DHT22;2916;49.798;10.022;2022-08-25T12:17:25;31.20;1.00
5779;DHT22;2916;49.798;10.022;2022-08-25T12:20:05;31.30;1.00
5779;DHT22;2916;49.798;10.022;2022-08-25T12:22:54;31.70;1.00
5779;DHT22;2916;49.798;10.022;2022-08-25T12:28:41;31.50;1.00
5779;DHT22;2916;49.798;10.022;2022-08-25T12:31:23;30.40;1.00
5779;DHT22;2916;49.798;10.022;2022-08-25T12:34:15;30.30;1.00
5779;DHT22;2916;49.798;10.022;2022-08-25T12:37:03;30.90;1.00
5779;DHT22;2916;49.798;10.022;2022-08-25T12:39:42;31.10;1.00
5779;DHT22;2916;49.798;10.022;2022-08-25T12:42:22;30.00;1.00
5779;DHT22;2916;49.798;10.022;2022-08-25T12:45:16;30.60;1.00
5779;DHT22;2916;49.798;10.022;2022-08-25T12:51:51;30.70;1.00
5779;DHT22;2916;49.798;10.022;2022-08-25T12:54:27;30.60;1.00
5779;DHT22;2916;49.798;10.022;2022-08-25T12:57:27;31.10;1.00
5779;DHT22;2916;49.798;10.022;2022-08-25T13:00:10;30.90;1.00
5779;DHT22;2916;49.798;10.022;2022-08-25T13:03:06;31.00;1.00
5779;DHT22;2916;49.798;10.022;2022-08-25T13:06:11;31.20;1.00
5779;DHT22;2916;49.798;10.022;2022-08-25T13:09:33;31.50;1.00
5779;DHT22;2916;49.798;10.022;2022-08-25T13:12:28;31.50;1.00
5779;DHT22;2916;49.798;10.022;2022-08-25T13:14:59;31.60;1.00
5779;DHT22;2916;49.798;10.022;2022-08-25T13:17:28;31.30;1.00
5779;DHT22;2916;49.798;10.022;2022-08-25T13:20:14;31.00;1.00
5779;DHT22;2916;49.798;10.022;2022-08-25T13:22:46;31.10;1.00
5779;DHT22;2916;49.798;10.022;2022-08-25T13:25:20;31.10;1.00
5779;DHT22;2916;49.798;10.022;2022-08-25T13:27:54;30.90;1.00
5779;DHT22;2916;49.798;10.022;2022-08-25T13:30:26;31.00;1.00
5779;DHT22;2916;49.798;10.022;2022-08-25T13:32:55;31.30;1.00
5779;DHT22;2916;49.798;10.022;2022-08-25T13:35:24;31.60;1.00
5779;DHT22;2916;49.798;10.022;2022-08-25T13:38:11;31.60;1.00
5779;DHT22;2916;49.798;10.022;2022-08-25T13:40:40;31.20;1.00
5779;DHT22;2916;49.798;10.022;2022-08-25T13:43:10;30.80;1.00
5779;DHT22;2916;49.798;10.022;2022-08-25T13:45:41;30.90;1.00
5779;DHT22;2916;49.798;10.022;2022-08-25T13:48:12;31.10;1.00
5779;DHT22;2916;49.798;10.022;2022-08-25T13:51:06;31.30;1.00
5779;DHT22;2916;49.798;10.022;2022-08-25T13:53:48;31.40;1.00
5779;DHT22;2916;49.798;10.022;2022-08-25T13:56:26;31.00;1.00
5779;DHT22;2916;49.798;10.022;2022-08-25T13:58:59;31.10;1.00
5779;DHT22;2916;49.798;10.022;2022-08-25T14:01:30;31.10;1.00
5779;DHT22;2916;49.798;10.022;2022-08-25T14:04:27;31.00;1.00
5779;DHT22;2916;49.798;10.022;2022-08-25T14:07:24;31.10;1.00
5779;DHT22;2916;49.798;10.022;2022-08-25T14:09:55;31.30;1.00
5779;DHT22;2916;49.798;10.022;2022-08-25T14:12:35;31.30;1.00
5779;DHT22;2916;49.798;10.022;2022-08-25T14:15:11;31.40;1.00
5779;DHT22;2916;49.798;10.022;2022-08-25T14:18:02;31.60;1.00
5779;DHT22;2916;49.798;10.022;2022-08-25T14:20:32;31.50;1.00
5779;DHT22;2916;49.798;10.022;2022-08-25T14:23:04;31.80;1.00
5779;DHT22;2916;49.798;10.022;2022-08-25T14:25:33;31.50;1.00
5779;DHT22;2916;49.798;10.022;2022-08-25T14:28:05;31.60;1.00
5779;DHT22;2916;49.798;10.022;2022-08-25T14:30:41;31.30;1.00
5779;DHT22;2916;49.798;10.022;2022-08-25T14:33:10;30.90;1.00
5779;DHT22;2916;49.798;10.022;2022-08-25T14:35:40;31.10;1.00
5779;DHT22;2916;49.798;10.022;2022-08-25T14:38:09;31.00;1.00
5779;DHT22;2916;49.798;10.022;2022-08-25T14:40:37;31.30;1.00
5779;DHT22;2916;49.798;10.022;2022-08-25T14:43:06;30.90;1.00
5779;DHT22;2916;49.798;10.022;2022-08-25T14:45:36;30.90;1.00
5779;DHT22;2916;49.798;10.022;2022-08-25T14:48:07;31.10;1.00
5779;DHT22;2916;49.798;10.022;2022-08-25T14:50:36;31.00;1.00
5779;DHT22;2916;49.798;10.022;2022-08-25T14:53:04;30.80;1.00
5779;DHT22;2916;49.798;10.022;2022-08-25T14:55:31;30.80;1.00
5779;DHT22;2916;49.798;10.022;2022-08-25T14:57:58;30.60;1.00
5779;DHT22;2916;49.798;10.022;2022-08-25T15:00:27;30.60;1.00
5779;DHT22;2916;49.798;10.022;2022-08-25T15:02:54;30.20;1.00
5779;DHT22;2916;49.798;10.022;2022-08-25T15:05:24;30.20;1.00
5779;DHT22;2916;49.798;10.022;2022-08-25T15:07:52;30.30;1.00
5779;DHT22;2916;49.798;10.022;2022-08-25T15:10:38;30.50;1.00
5779;DHT22;2916;49.798;10.022;2022-08-25T15:13:05;30.60;1.00
5779;DHT22;2916;49.798;10.022;2022-08-25T15:15:37;30.60;1.00
5779;DHT22;2916;49.798;10.022;2022-08-25T15:18:09;30.70;1.00
5779;DHT22;2916;49.798;10.022;2022-08-25T15:20:36;30.60;1.00
5779;DHT22;2916;49.798;10.022;2022-08-25T15:23:03;30.50;1.00
5779;DHT22;2916;49.798;10.022;2022-08-25T15:25:30;30.40;1.00
5779;DHT22;2916;49.798;10.022;2022-08-25T15:28:05;30.30;1.00
5779;DHT22;2916;49.798;10.022;2022-08-25T15:30:35;30.50;1.00
5779;DHT22;2916;49.798;10.022;2022-08-25T15:33:02;30.50;1.00
5779;DHT22;2916;49.798;10.022;2022-08-25T15:35:30;30.50;1.00
5779;DHT22;2916;49.798;10.022;2022-08-25T15:38:00;30.60;1.00
5779;DHT22;2916;49.798;10.022;2022-08-25T15:40:27;30.40;1.00
5779;DHT22;2916;49.798;10.022;2022-08-25T15:42:54;30.30;1.00
5779;DHT22;2916;49.798;10.022;2022-08-25T15:45:22;30.40;1.00
5779;DHT22;2916;49.798;10.022;2022-08-25T15:47:50;30.40;1.00
5779;DHT22;2916;49.798;10.022;2022-08-25T15:50:20;30.40;1.00
5779;DHT22;2916;49.798;10.022;2022-08-25T15:52:47;30.30;1.00
5779;DHT22;2916;49.798;10.022;2022-08-25T15:55:16;30.20;1.00
5779;DHT22;2916;49.798;10.022;2022-08-25T15:57:43;30.10;1.00
5779;DHT22;2916;49.798;10.022;2022-08-25T16:00:13;30.10;1.00
5779;DHT22;2916;49.798;10.022;2022-08-25T16:02:41;30.10;1.00
5779;DHT22;2916;49.798;10.022;2022-08-25T16:05:10;30.20;1.00
5779;DHT22;2916;49.798;10.022;2022-08-25T16:07:38;30.00;1.00
5779;DHT22;2916;49.798;10.022;2022-08-25T16:10:05;30.10;1.00
5779;DHT22;2916;49.798;10.022;2022-08-25T16:12:33;30.10;1.00
5779;DHT22;2916;49.798;10.022;2022-08-25T16:15:00;30.10;1.00
5779;DHT22;2916;49.798;10.022;2022-08-25T16:17:28;30.00;1.00
5779;DHT22;2916;49.798;10.022;2022-08-25T16:19:55;30.00;1.00
5779;DHT22;2916;49.798;10.022;2022-08-25T16:22:23;30.00;1.00
5779;DHT22;2916;49.798;10.022;2022-08-25T16:24:50;30.00;1.00
5779;DHT22;2916;49.798;10.022;2022-08-25T16:27:18;30.00;1.00
5779;DHT22;2916;49.798;10.022;2022-08-25T16:29:45;29.90;1.00
5779;DHT22;2916;49.798;10.022;2022-08-25T16:32:13;29.90;1.00
5779;DHT22;2916;49.798;10.022;2022-08-25T16:34:41;29.90;1.00
5779;DHT22;2916;49.798;10.022;2022-08-25T16:37:08;29.90;1.00
5779;DHT22;2916;49.798;10.022;2022-08-25T16:39:38;29.90;1.00
5779;DHT22;2916;49.798;10.022;2022-08-25T16:42:08;29.90;1.00
5779;DHT22;2916;49.798;10.022;2022-08-25T16:44:35;29.90;1.00
5779;DHT22;2916;49.798;10.022;2022-08-25T16:47:04;29.80;1.00
5779;DHT22;2916;49.798;10.022;2022-08-25T16:49:31;29.80;1.00
5779;DHT22;2916;49.798;10.022;2022-08-25T16:51:58;29.70;1.00
5779;DHT22;2916;49.798;10.022;2022-08-25T16:54:27;29.60;1.00
5779;DHT22;2916;49.798;10.022;2022-08-25T16:57:13;29.60;1.00